sensor_id;sensor_type;location;lat;lon;timestamp;P1;durP1;ratioP1;P2;durP2;ratioP2
9904;SDS011;4991;43.566;27.820;2023-02-07T00:00:39;0.00;;;0.00;;
9904;SDS011;4991;43.566;27.820;2023-02-07T00:03:05;0.03;;;0.03;;
9904;SDS011;4991;43.566;27.820;2023-02-07T00:05:31;0.00;;;0.00;;
9904;SDS011;4991;43.566;27.820;2023-02-07T00:07:56;0.20;;;0.20;;
9904;SDS011;4991;43.566;27.820;2023-02-07T00:10:22;0.27;;;0.27;;
9904;SDS011;4991;43.566;27.820;2023-02-07T00:12:47;0.00;;;0.00;;
9904;SDS011;4991;43.566;27.820;2023-02-07T00:15:14;0.07;;;0.07;;
9904;SDS011;4991;43.566;27.820;2023-02-07T00:17:40;0.00;;;0.00;;
9904;SDS011;4991;43.566;27.820;2023-02-07T00:20:06;0.00;;;0.00;;
9904;SDS011;4991;43.566;27.820;2023-02-07T00:22:32;0.03;;;0.03;;
9904;SDS011;4991;43.566;27.820;2023-02-07T00:24:58;0.20;;;0.20;;
9904;SDS011;4991;43.566;27.820;2023-02-07T00:27:24;0.03;;;0.03;;
9904;SDS011;4991;43.566;27.820;2023-02-07T00:29:49;0.00;;;0.00;;
9904;SDS011;4991;43.566;27.820;2023-02-07T00:32:15;0.00;;;0.00;;
9904;SDS011;4991;43.566;27.820;2023-02-07T00:34:41;0.10;;;0.10;;
9904;SDS011;4991;43.566;27.820;2023-02-07T00:37:06;0.10;;;0.10;;
9904;SDS011;4991;43.566;27.820;2023-02-07T00:39:34;2.10;;;2.00;;
9904;SDS011;4991;43.566;27.820;2023-02-07T00:41:59;0.03;;;0.03;;
9904;SDS011;4991;43.566;27.820;2023-02-07T00:44:25;0.47;;;0.47;;
9904;SDS011;4991;43.566;27.820;2023-02-07T00:46:51;0.07;;;0.07;;
9904;SDS011;4991;43.566;27.820;2023-02-07T00:49:17;0.03;;;0.03;;
9904;SDS011;4991;43.566;27.820;2023-02-07T00:51:42;0.13;;;0.13;;
9904;SDS011;4991;43.566;27.820;2023-02-07T00:54:08;0.20;;;0.20;;
9904;SDS011;4991;43.566;27.820;2023-02-07T00:56:34;0.10;;;0.10;;
9904;SDS011;4991;43.566;27.820;2023-02-07T00:59:00;0.00;;;0.00;;
9904;SDS011;4991;43.566;27.820;2023-02-07T01:01:26;0.00;;;0.00;;
9904;SDS011;4991;43.566;27.820;2023-02-07T01:03:52;0.00;;;0.00;;
9904;SDS011;4991;43.566;27.820;2023-02-07T01:06:18;0.43;;;0.43;;
9904;SDS011;4991;43.566;27.820;2023-02-07T01:08:45;0.03;;;0.03;;
9904;SDS011;4991;43.566;27.820;2023-02-07T01:11:12;0.00;;;0.00;;
9904;SDS011;4991;43.566;27.820;2023-02-07T01:13:40;0.00;;;0.00;;
9904;SDS011;4991;43.566;27.820;2023-02-07T01:16:18;0.10;;;0.10;;
9904;SDS011;4991;43.566;27.820;2023-02-07T01:18:46;0.67;;;0.67;;
9904;SDS011;4991;43.566;27.820;2023-02-07T01:21:15;0.40;;;0.40;;
9904;SDS011;4991;43.566;27.820;2023-02-07T01:23:43;0.00;;;0.00;;
9904;SDS011;4991;43.566;27.820;2023-02-07T01:26:09;0.00;;;0.00;;
9904;SDS011;4991;43.566;27.820;2023-02-07T01:28:35;0.60;;;0.60;;
9904;SDS011;4991;43.566;27.820;2023-02-07T01:31:03;0.10;;;0.10;;
9904;SDS011;4991;43.566;27.820;2023-02-07T01:33:31;0.10;;;0.10;;
9904;SDS011;4991;43.566;27.820;2023-02-07T01:35:57;0.00;;;0.00;;
9904;SDS011;4991;43.566;27.820;2023-02-07T01:38:22;0.10;;;0.10;;
9904;SDS011;4991;43.566;27.820;2023-02-07T01:40:48;2.07;;;1.93;;
9904;SDS011;4991;43.566;27.820;2023-02-07T01:43:15;0.00;;;0.00;;
9904;SDS011;4991;43.566;27.820;2023-02-07T01:45:43;0.03;;;0.03;;
9904;SDS011;4991;43.566;27.820;2023-02-07T01:48:12;0.10;;;0.10;;
9904;SDS011;4991;43.566;27.820;2023-02-07T01:50:42;0.00;;;0.00;;
9904;SDS011;4991;43.566;27.820;2023-02-07T01:53:11;0.00;;;0.00;;
9904;SDS011;4991;43.566;27.820;2023-02-07T01:55:40;0.10;;;0.10;;
9904;SDS011;4991;43.566;27.820;2023-02-07T01:58:07;0.00;;;0.00;;
9904;SDS011;4991;43.566;27.820;2023-02-07T02:00:33;0.00;;;0.00;;
9904;SDS011;4991;43.566;27.820;2023-02-07T02:03:00;0.10;;;0.10;;
9904;SDS011;4991;43.566;27.820;2023-02-07T02:05:26;0.10;;;0.10;;
9904;SDS011;4991;43.566;27.820;2023-02-07T02:07:54;0.00;;;0.00;;
9904;SDS011;4991;43.566;27.820;2023-02-07T02:10:21;0.10;;;0.10;;
9904;SDS011;4991;43.566;27.820;2023-02-07T02:29:53;0.00;;;0.00;;
9904;SDS011;4991;43.566;27.820;2023-02-07T02:33:23;0.10;;;0.10;;
9904;SDS011;4991;43.566;27.820;2023-02-07T02:41:27;0.00;;;0.00;;
9904;SDS011;4991;43.566;27.820;2023-02-07T02:44:12;0.00;;;0.00;;
9904;SDS011;4991;43.566;27.820;2023-02-07T02:46:42;0.00;;;0.00;;
9904;SDS011;4991;43.566;27.820;2023-02-07T02:49:10;0.10;;;0.10;;
9904;SDS011;4991;43.566;27.820;2023-02-07T02:51:39;0.00;;;0.00;;
9904;SDS011;4991;43.566;27.820;2023-02-07T02:54:23;0.00;;;0.00;;
9904;SDS011;4991;43.566;27.820;2023-02-07T02:59:55;0.00;;;0.00;;
9904;SDS011;4991;43.566;27.820;2023-02-07T03:10:57;0.10;;;0.10;;
9904;SDS011;4991;43.566;27.820;2023-02-07T03:18:44;0.07;;;0.07;;
9904;SDS011;4991;43.566;27.820;2023-02-07T03:23:59;0.07;;;0.07;;
9904;SDS011;4991;43.566;27.820;2023-02-07T03:26:28;0.00;;;0.00;;
9904;SDS011;4991;43.566;27.820;2023-02-07T03:28:56;0.03;;;0.03;;
9904;SDS011;4991;43.566;27.820;2023-02-07T03:31:24;0.10;;;0.10;;
9904;SDS011;4991;43.566;27.820;2023-02-07T03:33:52;0.00;;;0.00;;
9904;SDS011;4991;43.566;27.820;2023-02-07T03:36:30;0.10;;;0.10;;
9904;SDS011;4991;43.566;27.820;2023-02-07T03:39:01;0.63;;;0.63;;
9904;SDS011;4991;43.566;27.820;2023-02-07T03:41:29;0.03;;;0.03;;
9904;SDS011;4991;43.566;27.820;2023-02-07T03:44:02;0.07;;;0.07;;
9904;SDS011;4991;43.566;27.820;2023-02-07T03:46:37;0.00;;;0.00;;
9904;SDS011;4991;43.566;27.820;2023-02-07T03:49:03;3.30;;;3.10;;
9904;SDS011;4991;43.566;27.820;2023-02-07T03:51:29;0.00;;;0.00;;
9904;SDS011;4991;43.566;27.820;2023-02-07T03:53:55;0.00;;;0.00;;
9904;SDS011;4991;43.566;27.820;2023-02-07T03:56:20;0.00;;;0.00;;
9904;SDS011;4991;43.566;27.820;2023-02-07T03:58:46;0.00;;;0.00;;
9904;SDS011;4991;43.566;27.820;2023-02-07T04:01:12;0.00;;;0.00;;
9904;SDS011;4991;43.566;27.820;2023-02-07T04:03:38;0.00;;;0.00;;
9904;SDS011;4991;43.566;27.820;2023-02-07T04:06:04;0.00;;;0.00;;
9904;SDS011;4991;43.566;27.820;2023-02-07T04:08:30;0.10;;;0.10;;
9904;SDS011;4991;43.566;27.820;2023-02-07T04:10:57;0.10;;;0.10;;
9904;SDS011;4991;43.566;27.820;2023-02-07T04:13:24;0.00;;;0.00;;
9904;SDS011;4991;43.566;27.820;2023-02-07T04:15:50;0.10;;;0.10;;
9904;SDS011;4991;43.566;27.820;2023-02-07T04:18:15;0.00;;;0.00;;
9904;SDS011;4991;43.566;27.820;2023-02-07T04:20:41;0.10;;;0.10;;
9904;SDS011;4991;43.566;27.820;2023-02-07T04:23:07;0.10;;;0.10;;
9904;SDS011;4991;43.566;27.820;2023-02-07T04:25:32;0.00;;;0.00;;
9904;SDS011;4991;43.566;27.820;2023-02-07T04:27:58;0.23;;;0.23;;
9904;SDS011;4991;43.566;27.820;2023-02-07T04:30:23;0.03;;;0.03;;
9904;SDS011;4991;43.566;27.820;2023-02-07T04:32:49;0.00;;;0.00;;
9904;SDS011;4991;43.566;27.820;2023-02-07T04:35:15;0.20;;;0.20;;
9904;SDS011;4991;43.566;27.820;2023-02-07T04:37:40;0.10;;;0.10;;
9904;SDS011;4991;43.566;27.820;2023-02-07T04:40:06;0.10;;;0.10;;
9904;SDS011;4991;43.566;27.820;2023-02-07T04:42:32;0.00;;;0.00;;
9904;SDS011;4991;43.566;27.820;2023-02-07T04:44:58;0.00;;;0.00;;
9904;SDS011;4991;43.566;27.820;2023-02-07T04:47:23;0.07;;;0.07;;
9904;SDS011;4991;43.566;27.820;2023-02-07T04:49:49;0.10;;;0.10;;
9904;SDS011;4991;43.566;27.820;2023-02-07T04:52:15;0.00;;;0.00;;
9904;SDS011;4991;43.566;27.820;2023-02-07T04:54:40;0.00;;;0.00;;
9904;SDS011;4991;43.566;27.820;2023-02-07T04:57:06;0.10;;;0.10;;
9904;SDS011;4991;43.566;27.820;2023-02-07T04:59:31;0.00;;;0.00;;
9904;SDS011;4991;43.566;27.820;2023-02-07T05:01:57;0.10;;;0.10;;
9904;SDS011;4991;43.566;27.820;2023-02-07T05:04:23;0.47;;;0.47;;
9904;SDS011;4991;43.566;27.820;2023-02-07T05:06:48;0.00;;;0.00;;
9904;SDS011;4991;43.566;27.820;2023-02-07T05:09:14;0.10;;;0.10;;
9904;SDS011;4991;43.566;27.820;2023-02-07T05:11:39;0.10;;;0.10;;
9904;SDS011;4991;43.566;27.820;2023-02-07T05:14:05;0.00;;;0.00;;
9904;SDS011;4991;43.566;27.820;2023-02-07T05:16:31;0.00;;;0.00;;
9904;SDS011;4991;43.566;27.820;2023-02-07T05:18:57;0.07;;;0.07;;
9904;SDS011;4991;43.566;27.820;2023-02-07T05:21:22;0.00;;;0.00;;
9904;SDS011;4991;43.566;27.820;2023-02-07T05:23:48;0.00;;;0.00;;
9904;SDS011;4991;43.566;27.820;2023-02-07T05:26:13;0.00;;;0.00;;
9904;SDS011;4991;43.566;27.820;2023-02-07T05:28:41;0.00;;;0.00;;
9904;SDS011;4991;43.566;27.820;2023-02-07T05:31:07;0.50;;;0.50;;
9904;SDS011;4991;43.566;27.820;2023-02-07T05:33:34;0.00;;;0.00;;
9904;SDS011;4991;43.566;27.820;2023-02-07T05:35:59;1.13;;;1.13;;
9904;SDS011;4991;43.566;27.820;2023-02-07T05:38:29;1.83;;;1.10;;
9904;SDS011;4991;43.566;27.820;2023-02-07T05:40:55;0.20;;;0.20;;
9904;SDS011;4991;43.566;27.820;2023-02-07T05:43:21;0.00;;;0.00;;
9904;SDS011;4991;43.566;27.820;2023-02-07T05:45:47;0.10;;;0.10;;
9904;SDS011;4991;43.566;27.820;2023-02-07T05:48:12;0.00;;;0.00;;
9904;SDS011;4991;43.566;27.820;2023-02-07T05:50:38;0.03;;;0.03;;
9904;SDS011;4991;43.566;27.820;2023-02-07T05:53:04;0.10;;;0.10;;
9904;SDS011;4991;43.566;27.820;2023-02-07T05:55:33;0.00;;;0.00;;
9904;SDS011;4991;43.566;27.820;2023-02-07T05:57:58;0.00;;;0.00;;
9904;SDS011;4991;43.566;27.820;2023-02-07T06:00:24;0.00;;;0.00;;
9904;SDS011;4991;43.566;27.820;2023-02-07T06:02:50;0.00;;;0.00;;
9904;SDS011;4991;43.566;27.820;2023-02-07T06:05:16;0.00;;;0.00;;
9904;SDS011;4991;43.566;27.820;2023-02-07T06:07:44;0.03;;;0.03;;
9904;SDS011;4991;43.566;27.820;2023-02-07T06:10:10;0.10;;;0.10;;
9904;SDS011;4991;43.566;27.820;2023-02-07T06:12:36;0.10;;;0.10;;
9904;SDS011;4991;43.566;27.820;2023-02-07T06:15:02;0.10;;;0.10;;
9904;SDS011;4991;43.566;27.820;2023-02-07T06:17:28;0.00;;;0.00;;
9904;SDS011;4991;43.566;27.820;2023-02-07T06:19:54;0.20;;;0.20;;
9904;SDS011;4991;43.566;27.820;2023-02-07T06:22:19;0.00;;;0.00;;
9904;SDS011;4991;43.566;27.820;2023-02-07T06:24:45;0.10;;;0.10;;
9904;SDS011;4991;43.566;27.820;2023-02-07T06:27:11;0.00;;;0.00;;
9904;SDS011;4991;43.566;27.820;2023-02-07T06:29:36;0.00;;;0.00;;
9904;SDS011;4991;43.566;27.820;2023-02-07T06:32:02;0.00;;;0.00;;
9904;SDS011;4991;43.566;27.820;2023-02-07T06:34:28;0.00;;;0.00;;
9904;SDS011;4991;43.566;27.820;2023-02-07T06:36:53;0.00;;;0.00;;
9904;SDS011;4991;43.566;27.820;2023-02-07T06:39:19;0.10;;;0.10;;
9904;SDS011;4991;43.566;27.820;2023-02-07T06:41:45;0.00;;;0.00;;
9904;SDS011;4991;43.566;27.820;2023-02-07T06:44:10;0.00;;;0.00;;
9904;SDS011;4991;43.566;27.820;2023-02-07T06:46:36;0.00;;;0.00;;
9904;SDS011;4991;43.566;27.820;2023-02-07T06:49:02;0.17;;;0.17;;
9904;SDS011;4991;43.566;27.820;2023-02-07T06:51:27;0.00;;;0.00;;
9904;SDS011;4991;43.566;27.820;2023-02-07T06:53:53;0.00;;;0.00;;
9904;SDS011;4991;43.566;27.820;2023-02-07T06:56:19;0.27;;;0.27;;
9904;SDS011;4991;43.566;27.820;2023-02-07T06:58:44;0.10;;;0.10;;
9904;SDS011;4991;43.566;27.820;2023-02-07T07:01:10;0.10;;;0.10;;
9904;SDS011;4991;43.566;27.820;2023-02-07T07:03:36;0.17;;;0.17;;
9904;SDS011;4991;43.566;27.820;2023-02-07T07:06:01;0.00;;;0.00;;
9904;SDS011;4991;43.566;27.820;2023-02-07T07:08:27;0.00;;;0.00;;
9904;SDS011;4991;43.566;27.820;2023-02-07T07:10:55;0.00;;;0.00;;
9904;SDS011;4991;43.566;27.820;2023-02-07T07:13:20;0.10;;;0.10;;
9904;SDS011;4991;43.566;27.820;2023-02-07T07:15:46;0.03;;;0.03;;
9904;SDS011;4991;43.566;27.820;2023-02-07T07:18:12;0.00;;;0.00;;
9904;SDS011;4991;43.566;27.820;2023-02-07T07:20:38;0.00;;;0.00;;
9904;SDS011;4991;43.566;27.820;2023-02-07T07:23:03;0.53;;;0.53;;
9904;SDS011;4991;43.566;27.820;2023-02-07T07:25:29;0.53;;;0.53;;
9904;SDS011;4991;43.566;27.820;2023-02-07T07:27:54;0.10;;;0.10;;
9904;SDS011;4991;43.566;27.820;2023-02-07T07:30:21;0.00;;;0.00;;
9904;SDS011;4991;43.566;27.820;2023-02-07T07:32:47;0.00;;;0.00;;
9904;SDS011;4991;43.566;27.820;2023-02-07T07:35:12;0.20;;;0.20;;
9904;SDS011;4991;43.566;27.820;2023-02-07T07:37:38;0.10;;;0.10;;
9904;SDS011;4991;43.566;27.820;2023-02-07T07:40:06;0.10;;;0.10;;
9904;SDS011;4991;43.566;27.820;2023-02-07T07:42:32;0.00;;;0.00;;
9904;SDS011;4991;43.566;27.820;2023-02-07T07:44:59;0.10;;;0.10;;
9904;SDS011;4991;43.566;27.820;2023-02-07T07:47:25;0.10;;;0.10;;
9904;SDS011;4991;43.566;27.820;2023-02-07T07:49:52;0.03;;;0.03;;
9904;SDS011;4991;43.566;27.820;2023-02-07T07:52:18;0.00;;;0.00;;
9904;SDS011;4991;43.566;27.820;2023-02-07T07:54:44;0.10;;;0.10;;
9904;SDS011;4991;43.566;27.820;2023-02-07T07:57:09;0.00;;;0.00;;
9904;SDS011;4991;43.566;27.820;2023-02-07T07:59:35;0.47;;;0.47;;
9904;SDS011;4991;43.566;27.820;2023-02-07T08:02:01;0.23;;;0.23;;
9904;SDS011;4991;43.566;27.820;2023-02-07T08:04:27;0.00;;;0.00;;
9904;SDS011;4991;43.566;27.820;2023-02-07T08:06:52;0.10;;;0.10;;
9904;SDS011;4991;43.566;27.820;2023-02-07T08:09:18;0.00;;;0.00;;
9904;SDS011;4991;43.566;27.820;2023-02-07T08:11:44;0.10;;;0.10;;
9904;SDS011;4991;43.566;27.820;2023-02-07T08:14:10;0.00;;;0.00;;
9904;SDS011;4991;43.566;27.820;2023-02-07T08:16:36;0.03;;;0.03;;
9904;SDS011;4991;43.566;27.820;2023-02-07T08:19:01;0.40;;;0.40;;
9904;SDS011;4991;43.566;27.820;2023-02-07T08:21:27;0.00;;;0.00;;
9904;SDS011;4991;43.566;27.820;2023-02-07T08:23:53;0.00;;;0.00;;
9904;SDS011;4991;43.566;27.820;2023-02-07T08:26:19;0.03;;;0.03;;
9904;SDS011;4991;43.566;27.820;2023-02-07T08:28:45;2.07;;;2.00;;
9904;SDS011;4991;43.566;27.820;2023-02-07T08:31:10;0.00;;;0.00;;
9904;SDS011;4991;43.566;27.820;2023-02-07T08:33:36;0.00;;;0.00;;
9904;SDS011;4991;43.566;27.820;2023-02-07T08:36:02;0.00;;;0.00;;
9904;SDS011;4991;43.566;27.820;2023-02-07T08:38:32;0.10;;;0.10;;
9904;SDS011;4991;43.566;27.820;2023-02-07T08:40:58;0.03;;;0.03;;
9904;SDS011;4991;43.566;27.820;2023-02-07T08:43:23;0.00;;;0.00;;
9904;SDS011;4991;43.566;27.820;2023-02-07T08:45:49;0.00;;;0.00;;
9904;SDS011;4991;43.566;27.820;2023-02-07T08:48:14;0.00;;;0.00;;
9904;SDS011;4991;43.566;27.820;2023-02-07T08:50:40;0.00;;;0.00;;
9904;SDS011;4991;43.566;27.820;2023-02-07T08:53:06;0.00;;;0.00;;
9904;SDS011;4991;43.566;27.820;2023-02-07T08:55:31;0.30;;;0.30;;
9904;SDS011;4991;43.566;27.820;2023-02-07T08:57:57;0.67;;;0.67;;
9904;SDS011;4991;43.566;27.820;2023-02-07T09:00:23;0.10;;;0.10;;
9904;SDS011;4991;43.566;27.820;2023-02-07T09:02:48;0.10;;;0.10;;
9904;SDS011;4991;43.566;27.820;2023-02-07T09:05:14;0.23;;;0.23;;
9904;SDS011;4991;43.566;27.820;2023-02-07T09:07:40;0.10;;;0.10;;
9904;SDS011;4991;43.566;27.820;2023-02-07T09:10:06;0.00;;;0.00;;
9904;SDS011;4991;43.566;27.820;2023-02-07T09:12:33;0.10;;;0.10;;
9904;SDS011;4991;43.566;27.820;2023-02-07T09:15:00;2.87;;;2.77;;
9904;SDS011;4991;43.566;27.820;2023-02-07T09:17:25;0.00;;;0.00;;
9904;SDS011;4991;43.566;27.820;2023-02-07T09:19:51;0.10;;;0.10;;
9904;SDS011;4991;43.566;27.820;2023-02-07T09:22:17;0.00;;;0.00;;
9904;SDS011;4991;43.566;27.820;2023-02-07T09:24:43;0.10;;;0.10;;
9904;SDS011;4991;43.566;27.820;2023-02-07T09:27:08;0.83;;;0.83;;
9904;SDS011;4991;43.566;27.820;2023-02-07T09:29:34;0.00;;;0.00;;
9904;SDS011;4991;43.566;27.820;2023-02-07T09:32:00;1.97;;;1.83;;
9904;SDS011;4991;43.566;27.820;2023-02-07T09:34:26;0.00;;;0.00;;
9904;SDS011;4991;43.566;27.820;2023-02-07T09:36:51;0.00;;;0.00;;
9904;SDS011;4991;43.566;27.820;2023-02-07T09:39:18;0.00;;;0.00;;
9904;SDS011;4991;43.566;27.820;2023-02-07T09:45:18;0.00;;;0.00;;
9904;SDS011;4991;43.566;27.820;2023-02-07T09:47:47;0.00;;;0.00;;
9904;SDS011;4991;43.566;27.820;2023-02-07T09:55:24;0.00;;;0.00;;
9904;SDS011;4991;43.566;27.820;2023-02-07T09:57:58;0.00;;;0.00;;
9904;SDS011;4991;43.566;27.820;2023-02-07T10:00:31;0.00;;;0.00;;
9904;SDS011;4991;43.566;27.820;2023-02-07T10:05:53;0.00;;;0.00;;
9904;SDS011;4991;43.566;27.820;2023-02-07T10:08:23;0.20;;;0.20;;
9904;SDS011;4991;43.566;27.820;2023-02-07T10:11:13;0.20;;;0.20;;
9904;SDS011;4991;43.566;27.820;2023-02-07T10:16:43;0.03;;;0.03;;
9904;SDS011;4991;43.566;27.820;2023-02-07T10:19:16;0.00;;;0.00;;
9904;SDS011;4991;43.566;27.820;2023-02-07T10:22:16;0.00;;;0.00;;
9904;SDS011;4991;43.566;27.820;2023-02-07T10:30:37;0.00;;;0.00;;
9904;SDS011;4991;43.566;27.820;2023-02-07T10:33:13;0.00;;;0.00;;
9904;SDS011;4991;43.566;27.820;2023-02-07T10:35:40;0.07;;;0.07;;
9904;SDS011;4991;43.566;27.820;2023-02-07T10:41:02;0.10;;;0.10;;
9904;SDS011;4991;43.566;27.820;2023-02-07T10:43:34;0.23;;;0.23;;
9904;SDS011;4991;43.566;27.820;2023-02-07T10:46:04;0.00;;;0.00;;
9904;SDS011;4991;43.566;27.820;2023-02-07T10:48:32;0.00;;;0.00;;
9904;SDS011;4991;43.566;27.820;2023-02-07T10:50:59;0.10;;;0.10;;
9904;SDS011;4991;43.566;27.820;2023-02-07T10:56:13;0.10;;;0.10;;
9904;SDS011;4991;43.566;27.820;2023-02-07T10:58:41;0.10;;;0.10;;
9904;SDS011;4991;43.566;27.820;2023-02-07T11:01:08;0.00;;;0.00;;
9904;SDS011;4991;43.566;27.820;2023-02-07T11:03:43;1.80;;;1.43;;
9904;SDS011;4991;43.566;27.820;2023-02-07T11:06:09;2.20;;;2.10;;
9904;SDS011;4991;43.566;27.820;2023-02-07T11:08:39;0.00;;;0.00;;
9904;SDS011;4991;43.566;27.820;2023-02-07T11:14:01;0.00;;;0.00;;
9904;SDS011;4991;43.566;27.820;2023-02-07T11:16:28;0.20;;;0.20;;
9904;SDS011;4991;43.566;27.820;2023-02-07T11:18:57;0.03;;;0.03;;
9904;SDS011;4991;43.566;27.820;2023-02-07T11:24:07;0.00;;;0.00;;
9904;SDS011;4991;43.566;27.820;2023-02-07T11:26:40;0.10;;;0.10;;
9904;SDS011;4991;43.566;27.820;2023-02-07T11:29:17;0.10;;;0.10;;
9904;SDS011;4991;43.566;27.820;2023-02-07T11:31:45;1.07;;;0.97;;
9904;SDS011;4991;43.566;27.820;2023-02-07T11:36:53;0.10;;;0.10;;
9904;SDS011;4991;43.566;27.820;2023-02-07T11:39:20;0.50;;;0.50;;
9904;SDS011;4991;43.566;27.820;2023-02-07T11:41:54;0.30;;;0.30;;
9904;SDS011;4991;43.566;27.820;2023-02-07T11:44:24;0.93;;;0.93;;
9904;SDS011;4991;43.566;27.820;2023-02-07T11:46:51;0.00;;;0.00;;
9904;SDS011;4991;43.566;27.820;2023-02-07T11:52:05;0.10;;;0.10;;
9904;SDS011;4991;43.566;27.820;2023-02-07T11:54:31;0.00;;;0.00;;
9904;SDS011;4991;43.566;27.820;2023-02-07T11:57:16;0.00;;;0.00;;
9904;SDS011;4991;43.566;27.820;2023-02-07T11:59:48;0.53;;;0.53;;
9904;SDS011;4991;43.566;27.820;2023-02-07T12:02:26;1.03;;;0.93;;
9904;SDS011;4991;43.566;27.820;2023-02-07T12:04:54;0.10;;;0.10;;
9904;SDS011;4991;43.566;27.820;2023-02-07T12:09:59;0.10;;;0.10;;
9904;SDS011;4991;43.566;27.820;2023-02-07T12:12:45;0.07;;;0.07;;
9904;SDS011;4991;43.566;27.820;2023-02-07T12:15:20;0.00;;;0.00;;
9904;SDS011;4991;43.566;27.820;2023-02-07T12:20:36;0.00;;;0.00;;
9904;SDS011;4991;43.566;27.820;2023-02-07T12:25:41;0.10;;;0.10;;
9904;SDS011;4991;43.566;27.820;2023-02-07T12:28:20;0.30;;;0.30;;
9904;SDS011;4991;43.566;27.820;2023-02-07T12:30:52;0.60;;;0.60;;
9904;SDS011;4991;43.566;27.820;2023-02-07T12:39:19;0.10;;;0.10;;
9904;SDS011;4991;43.566;27.820;2023-02-07T12:41:55;0.10;;;0.10;;
9904;SDS011;4991;43.566;27.820;2023-02-07T12:44:32;0.13;;;0.13;;
9904;SDS011;4991;43.566;27.820;2023-02-07T12:47:04;0.10;;;0.10;;
9904;SDS011;4991;43.566;27.820;2023-02-07T13:01:00;0.07;;;0.07;;
9904;SDS011;4991;43.566;27.820;2023-02-07T13:06:10;0.67;;;0.43;;
9904;SDS011;4991;43.566;27.820;2023-02-07T13:14:17;0.60;;;0.60;;
9904;SDS011;4991;43.566;27.820;2023-02-07T13:19:48;0.97;;;0.97;;
9904;SDS011;4991;43.566;27.820;2023-02-07T13:22:43;2.93;;;0.80;;
9904;SDS011;4991;43.566;27.820;2023-02-07T13:25:24;0.30;;;0.30;;
9904;SDS011;4991;43.566;27.820;2023-02-07T13:27:54;0.33;;;0.33;;
9904;SDS011;4991;43.566;27.820;2023-02-07T13:30:23;0.20;;;0.20;;
9904;SDS011;4991;43.566;27.820;2023-02-07T13:32:50;0.93;;;0.93;;
9904;SDS011;4991;43.566;27.820;2023-02-07T13:35:18;1.27;;;1.13;;
9904;SDS011;4991;43.566;27.820;2023-02-07T13:37:57;4.33;;;1.33;;
9904;SDS011;4991;43.566;27.820;2023-02-07T13:40:36;0.57;;;0.57;;
9904;SDS011;4991;43.566;27.820;2023-02-07T13:43:07;0.57;;;0.57;;
9904;SDS011;4991;43.566;27.820;2023-02-07T13:48:46;0.47;;;0.37;;
9904;SDS011;4991;43.566;27.820;2023-02-07T13:57:04;3.50;;;1.60;;
9904;SDS011;4991;43.566;27.820;2023-02-07T14:03:18;0.93;;;0.93;;
9904;SDS011;4991;43.566;27.820;2023-02-07T14:05:30;1.70;;;1.60;;
9904;SDS011;4991;43.566;27.820;2023-02-07T14:08:06;6.67;;;2.37;;
9904;SDS011;4991;43.566;27.820;2023-02-07T14:10:55;4.67;;;2.07;;
9904;SDS011;4991;43.566;27.820;2023-02-07T14:13:31;4.10;;;1.73;;
9904;SDS011;4991;43.566;27.820;2023-02-07T14:16:04;5.17;;;3.53;;
9904;SDS011;4991;43.566;27.820;2023-02-07T14:21:19;4.13;;;3.27;;
9904;SDS011;4991;43.566;27.820;2023-02-07T14:24:02;4.13;;;3.83;;
9904;SDS011;4991;43.566;27.820;2023-02-07T14:26:48;9.80;;;4.80;;
9904;SDS011;4991;43.566;27.820;2023-02-07T14:31:48;7.07;;;4.90;;
9904;SDS011;4991;43.566;27.820;2023-02-07T14:34:16;5.83;;;3.23;;
9904;SDS011;4991;43.566;27.820;2023-02-07T14:36:45;9.10;;;4.57;;
9904;SDS011;4991;43.566;27.820;2023-02-07T14:41:43;6.60;;;4.07;;
9904;SDS011;4991;43.566;27.820;2023-02-07T14:44:28;11.27;;;6.40;;
9904;SDS011;4991;43.566;27.820;2023-02-07T14:46:58;1.77;;;1.53;;
9904;SDS011;4991;43.566;27.820;2023-02-07T14:52:31;8.57;;;5.03;;
9904;SDS011;4991;43.566;27.820;2023-02-07T14:55:18;10.83;;;6.30;;
9904;SDS011;4991;43.566;27.820;2023-02-07T14:57:57;9.33;;;5.27;;
9904;SDS011;4991;43.566;27.820;2023-02-07T15:00:49;7.10;;;2.77;;
9904;SDS011;4991;43.566;27.820;2023-02-07T15:03:20;12.17;;;6.57;;
9904;SDS011;4991;43.566;27.820;2023-02-07T15:05:52;9.73;;;5.10;;
9904;SDS011;4991;43.566;27.820;2023-02-07T15:08:24;13.83;;;7.67;;
9904;SDS011;4991;43.566;27.820;2023-02-07T15:10:56;10.20;;;5.33;;
9904;SDS011;4991;43.566;27.820;2023-02-07T15:16:05;12.13;;;4.93;;
9904;SDS011;4991;43.566;27.820;2023-02-07T15:18:56;9.50;;;7.23;;
9904;SDS011;4991;43.566;27.820;2023-02-07T15:21:36;18.17;;;7.80;;
9904;SDS011;4991;43.566;27.820;2023-02-07T15:24:09;17.47;;;9.67;;
9904;SDS011;4991;43.566;27.820;2023-02-07T15:26:41;7.07;;;3.83;;
9904;SDS011;4991;43.566;27.820;2023-02-07T15:29:17;8.37;;;3.83;;
9904;SDS011;4991;43.566;27.820;2023-02-07T15:31:46;14.67;;;7.97;;
9904;SDS011;4991;43.566;27.820;2023-02-07T15:34:13;19.43;;;9.27;;
9904;SDS011;4991;43.566;27.820;2023-02-07T15:36:43;14.87;;;6.80;;
9904;SDS011;4991;43.566;27.820;2023-02-07T15:39:14;12.73;;;6.73;;
9904;SDS011;4991;43.566;27.820;2023-02-07T15:41:46;21.63;;;10.70;;
9904;SDS011;4991;43.566;27.820;2023-02-07T15:54:48;9.67;;;6.10;;
9904;SDS011;4991;43.566;27.820;2023-02-07T15:57:26;18.87;;;9.63;;
9904;SDS011;4991;43.566;27.820;2023-02-07T16:00:07;10.40;;;6.37;;
9904;SDS011;4991;43.566;27.820;2023-02-07T16:02:41;14.00;;;7.60;;
9904;SDS011;4991;43.566;27.820;2023-02-07T16:05:22;13.13;;;7.20;;
9904;SDS011;4991;43.566;27.820;2023-02-07T16:07:51;20.17;;;7.90;;
9904;SDS011;4991;43.566;27.820;2023-02-07T16:10:32;14.60;;;8.50;;
9904;SDS011;4991;43.566;27.820;2023-02-07T16:15:34;15.43;;;8.47;;
9904;SDS011;4991;43.566;27.820;2023-02-07T16:18:04;14.57;;;8.77;;
9904;SDS011;4991;43.566;27.820;2023-02-07T16:20:32;18.00;;;9.73;;
9904;SDS011;4991;43.566;27.820;2023-02-07T16:23:01;13.60;;;7.83;;
9904;SDS011;4991;43.566;27.820;2023-02-07T16:25:34;10.37;;;6.67;;
9904;SDS011;4991;43.566;27.820;2023-02-07T16:28:09;20.87;;;11.17;;
9904;SDS011;4991;43.566;27.820;2023-02-07T16:30:38;15.20;;;8.87;;
9904;SDS011;4991;43.566;27.820;2023-02-07T16:33:05;20.17;;;10.30;;
9904;SDS011;4991;43.566;27.820;2023-02-07T16:35:32;20.03;;;11.03;;
9904;SDS011;4991;43.566;27.820;2023-02-07T16:37:58;14.00;;;7.23;;
9904;SDS011;4991;43.566;27.820;2023-02-07T16:40:24;22.63;;;13.23;;
9904;SDS011;4991;43.566;27.820;2023-02-07T16:42:53;23.00;;;11.53;;
9904;SDS011;4991;43.566;27.820;2023-02-07T16:45:24;19.30;;;10.77;;
9904;SDS011;4991;43.566;27.820;2023-02-07T16:47:51;24.47;;;11.80;;
9904;SDS011;4991;43.566;27.820;2023-02-07T16:50:21;6.10;;;4.77;;
9904;SDS011;4991;43.566;27.820;2023-02-07T16:52:50;20.07;;;11.20;;
9904;SDS011;4991;43.566;27.820;2023-02-07T16:55:19;13.97;;;9.00;;
9904;SDS011;4991;43.566;27.820;2023-02-07T16:57:45;27.73;;;13.63;;
9904;SDS011;4991;43.566;27.820;2023-02-07T17:00:23;24.37;;;11.67;;
9904;SDS011;4991;43.566;27.820;2023-02-07T17:02:50;18.57;;;10.70;;
9904;SDS011;4991;43.566;27.820;2023-02-07T17:05:17;15.97;;;9.20;;
9904;SDS011;4991;43.566;27.820;2023-02-07T17:07:44;19.60;;;11.53;;
9904;SDS011;4991;43.566;27.820;2023-02-07T17:10:31;23.37;;;12.37;;
9904;SDS011;4991;43.566;27.820;2023-02-07T17:12:57;20.67;;;10.57;;
9904;SDS011;4991;43.566;27.820;2023-02-07T17:15:22;24.03;;;11.70;;
9904;SDS011;4991;43.566;27.820;2023-02-07T17:17:48;13.00;;;8.10;;
9904;SDS011;4991;43.566;27.820;2023-02-07T17:20:26;25.00;;;13.63;;
9904;SDS011;4991;43.566;27.820;2023-02-07T17:22:53;27.13;;;14.40;;
9904;SDS011;4991;43.566;27.820;2023-02-07T17:25:20;23.90;;;11.67;;
9904;SDS011;4991;43.566;27.820;2023-02-07T17:27:47;15.57;;;9.30;;
9904;SDS011;4991;43.566;27.820;2023-02-07T17:30:17;19.67;;;10.27;;
9904;SDS011;4991;43.566;27.820;2023-02-07T17:32:47;20.67;;;11.43;;
9904;SDS011;4991;43.566;27.820;2023-02-07T17:35:13;23.57;;;11.43;;
9904;SDS011;4991;43.566;27.820;2023-02-07T17:37:39;22.87;;;11.87;;
9904;SDS011;4991;43.566;27.820;2023-02-07T17:42:54;17.60;;;9.57;;
9904;SDS011;4991;43.566;27.820;2023-02-07T17:45:20;20.63;;;10.47;;